createdAt,value
2018-09-19T00:02:10.354Z,6.00
2018-09-19T00:04:40.118Z,7.00
2018-09-19T00:07:10.759Z,3.60
2018-09-19T00:09:40.724Z,6.60
2018-09-19T00:12:11.445Z,6.00
2018-09-19T00:14:42.004Z,6.00
2018-09-19T00:17:12.168Z,4.40
2018-09-19T00:19:42.190Z,6.20
2018-09-19T00:22:12.982Z,6.00
2018-09-19T00:24:42.627Z,4.00
2018-09-19T00:27:12.249Z,4.40
2018-09-19T00:29:42.018Z,4.20
2018-09-19T00:32:11.716Z,5.40
2018-09-19T00:34:41.868Z,5.20
2018-09-19T00:37:13.647Z,5.40
2018-09-19T00:39:44.993Z,5.00
2018-09-19T00:42:14.909Z,4.40
2018-09-19T00:44:44.590Z,4.00
2018-09-19T00:47:14.213Z,5.20
2018-09-19T00:49:43.937Z,4.40
2018-09-19T00:52:14.468Z,5.20
2018-09-19T00:54:44.296Z,4.40
2018-09-19T00:57:14.571Z,4.80
2018-09-19T00:59:44.139Z,5.40
2018-09-19T01:02:13.792Z,8.00
2018-09-19T01:04:43.525Z,4.00
2018-09-19T01:07:13.191Z,5.60
2018-09-19T01:09:42.969Z,4.40
2018-09-19T01:12:13.970Z,4.60
2018-09-19T01:14:45.106Z,4.20
2018-09-19T01:17:15.376Z,4.60
2018-09-19T01:19:45.633Z,5.40
2018-09-19T01:22:16.752Z,4.80
2018-09-19T01:24:47.014Z,4.00
2018-09-19T01:27:16.601Z,6.00
2018-09-19T01:29:48.606Z,6.60
2018-09-19T01:32:19.033Z,4.40
2018-09-19T01:34:48.790Z,8.20
2018-09-19T01:37:19.034Z,6.00
2018-09-19T01:39:48.964Z,5.60
2018-09-19T01:42:19.363Z,4.00
2018-09-19T01:44:50.109Z,7.00
2018-09-19T01:47:20.236Z,5.00
2018-09-19T01:49:50.959Z,4.00
2018-09-19T01:52:20.542Z,6.60
2018-09-19T01:54:51.918Z,3.40
2018-09-19T01:57:21.760Z,6.60
2018-09-19T01:59:51.732Z,7.00
2018-09-19T02:02:22.056Z,3.40
2018-09-19T02:04:51.928Z,3.60
2018-09-19T02:07:21.783Z,5.80
2018-09-19T02:09:53.177Z,8.60
2018-09-19T02:12:25.652Z,3.00
2018-09-19T02:14:57.248Z,6.40
2018-09-19T02:17:27.473Z,7.00
2018-09-19T02:19:58.906Z,4.00
2018-09-19T02:22:29.852Z,5.20
2018-09-19T02:25:01.488Z,4.00
2018-09-19T02:27:31.252Z,6.00
2018-09-19T02:30:01.445Z,5.20
2018-09-19T02:32:31.129Z,5.60
2018-09-19T02:35:00.832Z,6.80
2018-09-19T02:37:31.005Z,6.40
2018-09-19T02:40:00.591Z,4.00
2018-09-19T02:42:30.282Z,6.20
2018-09-19T02:45:00.344Z,7.00
2018-09-19T02:47:31.852Z,6.00
2018-09-19T02:50:01.621Z,6.20
2018-09-19T02:52:31.374Z,6.60
2018-09-19T02:55:01.106Z,7.00
2018-09-19T02:57:30.900Z,5.40
2018-09-19T03:00:01.273Z,7.00
2018-09-19T03:02:31.876Z,8.60
2018-09-19T03:05:01.453Z,6.00
2018-09-19T03:07:31.698Z,8.20
2018-09-19T03:10:01.441Z,4.20
2018-09-19T03:12:31.246Z,6.80
2018-09-19T03:15:01.078Z,4.00
2018-09-19T03:17:30.836Z,4.60
2018-09-19T03:20:00.535Z,6.80
2018-09-19T03:22:31.372Z,6.00
2018-09-19T03:25:03.264Z,5.00
2018-09-19T03:27:33.509Z,6.00
2018-09-19T03:30:04.629Z,6.60
2018-09-19T03:32:35.654Z,8.00
2018-09-19T03:35:05.984Z,4.60
2018-09-19T03:37:35.577Z,8.20
2018-09-19T03:40:05.510Z,3.60
2018-09-19T03:42:36.031Z,6.00
2018-09-19T03:45:06.662Z,5.40
2018-09-19T03:47:37.338Z,6.00
2018-09-19T03:50:06.972Z,3.00
2018-09-19T03:52:37.352Z,8.80
2018-09-19T03:55:07.400Z,5.40
2018-09-19T03:57:37.112Z,3.00
2018-09-19T04:00:08.204Z,5.40
2018-09-19T04:02:38.038Z,7.80
2018-09-19T04:05:08.766Z,3.80
2018-09-19T04:07:38.405Z,9.00
2018-09-19T04:10:08.095Z,6.20
2018-09-19T04:12:38.873Z,4.60
2018-09-19T04:15:08.704Z,6.00
2018-09-19T04:17:39.474Z,6.00
2018-09-19T04:20:09.159Z,7.00
2018-09-19T04:22:39.237Z,6.00
2018-09-19T04:25:09.382Z,3.00
2018-09-19T04:27:40.569Z,6.60
2018-09-19T04:30:10.303Z,7.40
2018-09-19T04:32:40.591Z,7.80
2018-09-19T04:35:11.241Z,4.60
2018-09-19T04:37:42.032Z,5.80
2018-09-19T04:40:12.342Z,5.40
2018-09-19T04:42:41.933Z,6.00
2018-09-19T04:45:12.642Z,4.60
2018-09-19T04:47:45.627Z,5.60
2018-09-19T04:50:23.513Z,6.00
2018-09-19T04:52:56.597Z,4.40
2018-09-19T04:55:26.386Z,6.60
2018-09-19T04:57:56.050Z,4.20
2018-09-19T05:00:26.213Z,6.40
2018-09-19T05:02:56.559Z,7.80
2018-09-19T05:05:27.265Z,5.40
2018-09-19T05:07:57.429Z,5.60
2018-09-19T05:10:27.863Z,4.40
2018-09-19T05:12:59.084Z,6.00
2018-09-19T05:16:59.006Z,3.00
2018-09-19T05:19:29.941Z,4.80
2018-09-19T05:21:59.788Z,7.00
2018-09-19T05:24:29.920Z,6.40
2018-09-19T05:26:59.803Z,7.00
2018-09-19T05:29:30.099Z,4.00
2018-09-19T05:32:01.444Z,7.00
2018-09-19T05:34:31.779Z,6.00
2018-09-19T05:37:02.192Z,5.00
2018-09-19T05:39:32.294Z,7.00
2018-09-19T05:42:02.179Z,4.40
2018-09-19T05:44:32.506Z,6.80
2018-09-19T05:47:02.149Z,6.00
2018-09-19T05:49:35.458Z,5.40
2018-09-19T05:52:05.204Z,4.00
2018-09-19T05:54:35.355Z,4.00
2018-09-19T05:57:06.927Z,4.20
2018-09-19T05:59:38.860Z,4.00
2018-09-19T06:02:09.854Z,5.60
2018-09-19T06:04:40.448Z,4.00
2018-09-19T06:07:10.091Z,4.00
2018-09-19T06:09:40.765Z,4.80
2018-09-19T06:12:10.941Z,7.60
2018-09-19T06:14:42.885Z,5.80
2018-09-19T06:17:16.331Z,3.60
2018-09-19T06:19:45.999Z,3.40
2018-09-19T06:22:17.708Z,3.20
2018-09-19T06:24:48.187Z,4.40
2018-09-19T06:27:18.722Z,4.00
2018-09-19T06:29:51.397Z,3.00
2018-09-19T06:32:21.340Z,4.00
2018-09-19T06:34:50.953Z,6.80
2018-09-19T06:37:21.016Z,4.00
2018-09-19T06:39:51.226Z,5.60
2018-09-19T06:42:22.281Z,6.80
2018-09-19T06:44:52.417Z,5.00
2018-09-19T06:47:22.306Z,5.00
2018-09-19T06:49:52.083Z,5.20
2018-09-19T06:52:23.650Z,5.60
2018-09-19T06:54:53.944Z,4.80
2018-09-19T06:57:25.366Z,4.00
2018-09-19T06:59:56.345Z,6.00
2018-09-19T07:02:27.047Z,6.80
2018-09-19T07:04:56.869Z,5.40
2018-09-19T07:07:28.272Z,6.00
2018-09-19T07:10:00.133Z,6.60
2018-09-19T07:12:29.867Z,9.00
2018-09-19T07:15:00.492Z,4.60
2018-09-19T07:17:30.305Z,8.80
2018-09-19T07:20:00.186Z,5.60
2018-09-19T07:22:30.293Z,5.00
2018-09-19T07:25:00.788Z,6.60
2018-09-19T07:27:32.787Z,9.00
2018-09-19T07:30:02.892Z,5.80
2018-09-19T07:32:33.283Z,4.00
2018-09-19T07:35:06.468Z,4.80
2018-09-19T07:37:36.279Z,7.00
2018-09-19T07:40:06.467Z,7.00
2018-09-19T07:42:37.111Z,7.00
2018-09-19T07:45:06.866Z,4.40
2018-09-19T07:47:37.454Z,8.00
2018-09-19T07:50:10.940Z,5.20
2018-09-19T07:52:40.840Z,4.40
2018-09-19T07:55:13.074Z,7.40
2018-09-19T07:57:44.309Z,6.80
2018-09-19T08:00:16.234Z,8.80
2018-09-19T08:02:46.101Z,4.00
2018-09-19T08:05:16.125Z,7.80
2018-09-19T08:07:48.004Z,5.20
2018-09-19T08:10:18.022Z,8.20
2018-09-19T08:12:51.310Z,5.80
2018-09-19T08:15:21.975Z,6.20
2018-09-19T08:18:03.211Z,10.40
2018-09-19T08:20:42.267Z,9.40
2018-09-19T08:23:13.694Z,7.40
2018-09-19T08:25:43.438Z,9.60
2018-09-19T08:28:14.496Z,8.60
2018-09-19T08:30:45.991Z,11.80
2018-09-19T08:33:15.608Z,6.80
2018-09-19T08:35:48.093Z,9.60
2018-09-19T08:38:19.384Z,8.20
2018-09-19T08:40:49.397Z,11.80
2018-09-19T08:43:20.240Z,11.20
2018-09-19T08:45:50.847Z,9.80
2018-09-19T08:48:20.718Z,10.60
2018-09-19T08:50:50.376Z,10.40
2018-09-19T08:53:21.122Z,8.20
2018-09-19T08:55:50.758Z,11.20
2018-09-19T08:58:20.343Z,15.20
2018-09-19T09:00:51.408Z,11.20
2018-09-19T09:03:23.903Z,10.00
2018-09-19T09:05:54.827Z,10.20
2018-09-19T09:08:24.963Z,14.40
2018-09-19T09:10:54.801Z,11.80
2018-09-19T09:13:27.480Z,13.00
2018-09-19T09:16:08.683Z,8.80
2018-09-19T09:18:47.751Z,13.00
2018-09-19T09:21:17.773Z,12.20
2018-09-19T09:23:49.857Z,12.60
2018-09-19T09:26:19.876Z,13.00
2018-09-19T09:28:50.786Z,7.80
2018-09-19T09:31:21.076Z,11.20
2018-09-19T09:33:51.452Z,10.80
2018-09-19T09:36:21.165Z,12.80
2018-09-19T09:38:50.857Z,12.20
2018-09-19T09:41:20.530Z,12.20
2018-09-19T09:46:14.755Z,9.60
2018-09-19T09:48:45.314Z,13.60
2018-09-19T09:51:15.830Z,11.00
2018-09-19T09:53:46.187Z,9.80
2018-09-19T09:56:20.229Z,11.20
2018-09-19T09:58:51.433Z,10.80
2018-09-19T10:01:22.029Z,9.40
2018-09-19T10:03:55.006Z,7.00
2018-09-19T10:06:26.448Z,10.00
2018-09-19T10:08:56.628Z,11.40
2018-09-19T10:11:27.788Z,9.20
2018-09-19T10:13:59.065Z,12.60
2018-09-19T10:16:29.958Z,9.40
2018-09-19T10:19:04.084Z,11.00
2018-09-19T10:21:35.621Z,9.40
2018-09-19T10:24:08.909Z,8.60
2018-09-19T10:29:04.570Z,9.40
2018-09-19T10:31:38.708Z,10.80
2018-09-19T10:34:08.975Z,11.60
2018-09-19T10:36:39.651Z,10.20
2018-09-19T10:39:12.426Z,10.20
2018-09-19T10:41:44.367Z,10.00
2018-09-19T10:44:19.855Z,10.40
2018-09-19T10:46:50.629Z,13.40
2018-09-19T10:49:23.218Z,12.60
2018-09-19T10:51:54.260Z,9.00
2018-09-19T10:54:27.681Z,9.00
2018-09-19T10:56:57.549Z,6.80
2018-09-19T10:59:27.095Z,10.40
2018-09-19T11:01:57.857Z,12.60
2018-09-19T11:04:28.293Z,8.00
2018-09-19T11:06:57.896Z,10.40
2018-09-19T11:09:28.732Z,10.40
2018-09-19T11:11:59.119Z,10.00
2018-09-19T11:14:29.161Z,11.60
2018-09-19T11:17:00.708Z,9.60
2018-09-19T11:19:30.781Z,8.80
2018-09-19T11:22:01.395Z,10.00
2018-09-19T11:24:32.748Z,15.40
2018-09-19T11:27:03.369Z,8.80
2018-09-19T11:29:33.785Z,12.00
2018-09-19T11:32:04.169Z,13.00
2018-09-19T11:34:33.866Z,8.80
2018-09-19T11:37:04.276Z,8.80
2018-09-19T11:39:35.144Z,12.40
2018-09-19T11:42:04.781Z,8.60
2018-09-19T11:44:36.038Z,12.60
2018-09-19T11:47:06.727Z,12.60
2018-09-19T11:49:36.582Z,10.80
2018-09-19T11:52:09.919Z,12.20
2018-09-19T11:54:40.705Z,11.00
2018-09-19T11:57:11.400Z,10.00
2018-09-19T11:59:41.773Z,11.00
2018-09-19T12:02:14.232Z,11.80
2018-09-19T12:04:45.023Z,9.00
2018-09-19T12:07:15.975Z,9.60
2018-09-19T12:09:46.328Z,11.40
2018-09-19T12:12:16.601Z,9.80
2018-09-19T12:14:46.182Z,12.20
2018-09-19T12:17:16.192Z,10.40
2018-09-19T12:19:45.753Z,8.40
2018-09-19T12:22:17.542Z,12.20
2018-09-19T12:24:51.937Z,13.20
2018-09-19T12:27:21.459Z,13.20
2018-09-19T12:29:52.354Z,11.00
2018-09-19T12:32:22.769Z,10.60
2018-09-19T12:34:52.880Z,11.60
2018-09-19T12:37:23.025Z,11.60
2018-09-19T12:39:53.672Z,10.20
2018-09-19T12:42:23.498Z,8.60
2018-09-19T12:44:53.038Z,9.00
2018-09-19T12:47:23.148Z,12.00
2018-09-19T12:49:54.171Z,11.80
2018-09-19T12:52:25.147Z,9.60
2018-09-19T12:54:54.840Z,11.00
2018-09-19T12:57:29.683Z,11.00
2018-09-19T13:00:00.393Z,11.80
2018-09-19T13:02:31.303Z,8.80
2018-09-19T13:05:02.106Z,14.80
2018-09-19T13:07:33.096Z,9.80
2018-09-19T13:10:07.283Z,14.00
2018-09-19T13:12:38.345Z,11.00
2018-09-19T13:15:09.253Z,12.20
2018-09-19T13:17:39.608Z,13.40
2018-09-19T13:20:12.401Z,14.80
2018-09-19T13:22:42.608Z,14.40
2018-09-19T13:25:12.567Z,12.40
2018-09-19T13:27:42.572Z,11.00
2018-09-19T13:30:12.920Z,10.20
2018-09-19T13:32:43.521Z,13.80
2018-09-19T13:35:14.966Z,13.60
2018-09-19T13:37:45.129Z,13.60
2018-09-19T13:40:14.953Z,10.40
2018-09-19T13:42:44.857Z,11.80
2018-09-19T13:45:15.273Z,10.00
2018-09-19T13:47:45.871Z,4.40
2018-09-19T13:50:51.555Z,14.00
2018-09-19T13:53:25.797Z,12.20
2018-09-19T13:55:59.396Z,11.60
2018-09-19T13:58:29.187Z,8.60
2018-09-19T14:00:58.644Z,12.40
2018-09-19T14:03:28.761Z,10.60
2018-09-19T14:06:00.085Z,11.20
2018-09-19T14:08:29.934Z,14.80
2018-09-19T14:11:03.157Z,11.80
2018-09-19T14:13:35.078Z,9.80
2018-09-19T14:16:05.449Z,11.60
2018-09-19T14:18:37.227Z,11.00
2018-09-19T14:21:07.197Z,12.20
2018-09-19T14:23:37.717Z,11.20
2018-09-19T14:26:08.315Z,13.60
2018-09-19T14:28:41.368Z,10.40
2018-09-19T14:31:20.383Z,12.60
2018-09-19T14:34:01.105Z,11.20
2018-09-19T14:36:32.332Z,9.80
2018-09-19T14:39:02.447Z,12.40
2018-09-19T14:41:33.248Z,7.80
2018-09-19T14:44:03.288Z,8.40
2018-09-19T14:46:34.286Z,14.00
2018-09-19T14:49:04.117Z,15.00
2018-09-19T14:51:34.205Z,11.00
2018-09-19T14:54:04.233Z,13.80
2018-09-19T14:56:34.876Z,10.80
2018-09-19T14:59:06.562Z,11.00
2018-09-19T15:01:36.923Z,14.00
2018-09-19T15:04:08.263Z,11.00
2018-09-19T15:06:38.339Z,11.40
2018-09-19T15:09:10.533Z,14.40
2018-09-19T15:11:40.153Z,13.20
2018-09-19T15:14:10.580Z,12.60
2018-09-19T15:16:42.449Z,11.20
2018-09-19T15:19:13.958Z,12.40
2018-09-19T15:21:48.261Z,11.00
2018-09-19T15:24:19.879Z,13.20
2018-09-19T15:26:49.633Z,10.60
2018-09-19T15:29:20.158Z,18.60
2018-09-19T15:31:50.794Z,17.40
2018-09-19T15:34:22.078Z,16.40
2018-09-19T15:36:51.995Z,12.60
2018-09-19T15:39:21.865Z,15.00
2018-09-19T15:41:53.066Z,13.80
2018-09-19T15:44:24.523Z,12.00
2018-09-19T15:46:55.306Z,9.20
2018-09-19T15:49:25.143Z,9.00
2018-09-19T15:51:55.357Z,11.60
2018-09-19T15:54:25.144Z,10.80
2018-09-19T15:56:55.966Z,12.40
2018-09-19T15:59:31.126Z,8.00
2018-09-19T16:02:01.952Z,13.20
2018-09-19T16:04:32.695Z,11.60
2018-09-19T16:07:06.409Z,14.40
2018-09-19T16:09:36.974Z,13.00
2018-09-19T16:12:07.277Z,13.80
2018-09-19T16:14:36.973Z,7.20
2018-09-19T16:17:07.220Z,11.40
2018-09-19T16:19:38.076Z,11.80
2018-09-19T16:22:09.229Z,7.40
2018-09-19T16:24:40.487Z,12.00
2018-09-19T16:27:10.960Z,9.00
2018-09-19T16:29:43.070Z,12.40
2018-09-19T16:32:12.777Z,11.60
2018-09-19T16:34:42.548Z,8.80
2018-09-19T16:37:14.892Z,11.20
2018-09-19T16:39:44.693Z,11.20
2018-09-19T16:42:16.638Z,11.20
2018-09-19T16:44:48.823Z,13.80
2018-09-19T16:47:27.220Z,10.40
2018-09-19T16:49:59.557Z,8.40
2018-09-19T16:52:35.260Z,9.40
2018-09-19T16:55:05.326Z,8.80
2018-09-19T16:57:42.372Z,9.40
2018-09-19T17:00:13.097Z,10.80
2018-09-19T17:02:43.489Z,12.40
2018-09-19T17:05:14.878Z,9.80
2018-09-19T17:07:44.790Z,8.80
2018-09-19T17:10:15.320Z,10.80
2018-09-19T17:12:48.102Z,11.40
2018-09-19T17:15:20.570Z,11.00
2018-09-19T17:17:51.694Z,11.00
2018-09-19T17:20:21.893Z,8.20
2018-09-19T17:22:52.239Z,10.00
2018-09-19T17:25:22.492Z,9.20
2018-09-19T17:27:52.700Z,12.00
2018-09-19T17:30:22.395Z,10.80
2018-09-19T17:32:52.189Z,9.00
2018-09-19T17:35:22.452Z,8.40
2018-09-19T17:37:54.034Z,8.80
2018-09-19T17:40:23.946Z,8.60
2018-09-19T17:42:53.565Z,9.00
2018-09-19T17:45:24.797Z,8.20
2018-09-19T17:47:55.834Z,9.40
2018-09-19T17:50:27.359Z,11.20
2018-09-19T17:52:57.714Z,11.40
2018-09-19T17:55:27.726Z,7.60
2018-09-19T17:57:59.077Z,10.60
2018-09-19T18:00:29.622Z,8.20
2018-09-19T18:03:00.249Z,9.80
2018-09-19T18:05:30.924Z,5.60
2018-09-19T18:08:01.202Z,8.60
2018-09-19T18:10:32.062Z,11.20
2018-09-19T18:14:05.797Z,8.80
2018-09-19T18:16:35.517Z,8.60
2018-09-19T18:19:07.391Z,10.80
2018-09-19T18:21:37.081Z,8.00
2018-09-19T18:24:07.788Z,10.40
2018-09-19T18:26:37.510Z,7.40
2018-09-19T18:29:08.183Z,9.80
2018-09-19T18:31:39.257Z,8.80
2018-09-19T18:34:09.498Z,8.20
2018-09-19T18:36:39.407Z,11.80
2018-09-19T18:39:11.475Z,9.20
2018-09-19T18:41:42.029Z,7.20
2018-09-19T18:44:11.886Z,8.60
2018-09-19T18:46:43.393Z,11.00
2018-09-19T18:49:13.388Z,11.40
2018-09-19T18:51:43.296Z,11.20
2018-09-19T18:54:13.199Z,9.00
2018-09-19T18:56:43.282Z,11.00
2018-09-19T18:59:17.438Z,8.40
2018-09-19T19:01:48.786Z,9.00
2018-09-19T19:04:19.299Z,8.40
2018-09-19T19:06:50.042Z,7.60
2018-09-19T19:09:20.942Z,10.40
2018-09-19T19:11:51.446Z,8.20
2018-09-19T19:14:23.237Z,8.20
2018-09-19T19:16:56.179Z,8.80
2018-09-19T19:19:27.613Z,7.60
2018-09-19T19:21:57.758Z,10.20
2018-09-19T19:24:30.751Z,7.00
2018-09-19T19:27:00.499Z,4.40
2018-09-19T19:29:30.146Z,8.00
2018-09-19T19:32:00.191Z,8.40
2018-09-19T19:34:30.094Z,6.20
2018-09-19T19:37:00.205Z,9.40
2018-09-19T19:39:30.742Z,6.00
2018-09-19T19:42:01.765Z,8.80
2018-09-19T19:44:32.304Z,8.00
2018-09-19T19:47:04.209Z,8.00
2018-09-19T19:49:34.169Z,6.60
2018-09-19T19:52:04.333Z,6.00
2018-09-19T19:54:34.287Z,7.00
2018-09-19T19:57:05.177Z,7.40
2018-09-19T19:59:35.619Z,8.80
2018-09-19T20:02:05.868Z,7.20
2018-09-19T20:04:36.217Z,9.60
2018-09-19T20:07:06.667Z,7.60
2018-09-19T20:09:37.241Z,7.60
2018-09-19T20:12:08.625Z,7.80
2018-09-19T20:14:39.244Z,7.00
2018-09-19T20:17:10.211Z,8.20
2018-09-19T20:19:41.173Z,8.20
2018-09-19T20:22:11.636Z,7.60
2018-09-19T20:24:42.501Z,9.80
2018-09-19T20:27:13.591Z,9.00
2018-09-19T20:29:43.192Z,6.80
2018-09-19T20:32:14.927Z,7.60
2018-09-19T20:34:45.192Z,7.00
2018-09-19T20:37:16.432Z,8.00
2018-09-19T20:39:47.536Z,7.00
2018-09-19T20:42:18.052Z,5.40
2018-09-19T20:44:48.573Z,7.00
2018-09-19T20:47:19.226Z,9.00
2018-09-19T20:49:49.789Z,7.60
2018-09-19T20:52:20.991Z,5.80
2018-09-19T20:54:50.601Z,7.00
2018-09-19T20:57:20.872Z,5.80
2018-09-19T20:59:51.312Z,6.60
2018-09-19T21:02:22.357Z,7.00
2018-09-19T21:04:52.924Z,6.00
2018-09-19T21:07:22.635Z,5.00
2018-09-19T21:09:53.321Z,7.00
2018-09-19T21:12:24.952Z,8.00
2018-09-19T21:14:56.453Z,7.00
2018-09-19T21:17:26.116Z,8.00
2018-09-19T21:19:56.007Z,6.80
2018-09-19T21:22:26.389Z,4.00
2018-09-19T21:24:57.923Z,7.00
2018-09-19T21:27:28.481Z,5.80
2018-09-19T21:29:58.213Z,9.20
2018-09-19T21:32:28.087Z,7.00
2018-09-19T21:34:58.792Z,7.80
2018-09-19T21:37:29.082Z,7.60
2018-09-19T21:40:00.153Z,4.00
2018-09-19T21:42:30.739Z,10.40
2018-09-19T21:45:04.226Z,7.40
2018-09-19T21:47:34.023Z,5.80
2018-09-19T21:50:05.112Z,7.80
2018-09-19T21:52:35.792Z,8.20
2018-09-19T21:55:05.641Z,5.00
2018-09-19T21:57:35.760Z,2.00
2018-09-19T22:00:06.629Z,7.20
2018-09-19T22:02:37.707Z,7.00
2018-09-19T22:05:07.704Z,8.80
2018-09-19T22:07:38.412Z,6.20
2018-09-19T22:10:10.217Z,5.20
2018-09-19T22:12:39.984Z,7.40
2018-09-19T22:15:12.092Z,7.40
2018-09-19T22:17:42.167Z,4.00
2018-09-19T22:20:15.092Z,4.40
2018-09-19T22:22:45.156Z,7.00
2018-09-19T22:25:15.890Z,5.80
2018-09-19T22:27:46.411Z,5.00
2018-09-19T22:30:16.450Z,6.80
2018-09-19T22:32:48.085Z,5.00
2018-09-19T22:35:18.858Z,10.00
2018-09-19T22:37:49.087Z,8.80
2018-09-19T22:40:18.796Z,7.00
2018-09-19T22:42:49.964Z,8.40
2018-09-19T22:45:19.763Z,4.60
2018-09-19T22:47:50.724Z,7.20
2018-09-19T22:50:21.826Z,4.20
2018-09-19T22:52:51.486Z,5.00
2018-09-19T22:55:21.460Z,7.40
2018-09-19T22:57:51.128Z,5.40
2018-09-19T23:00:21.807Z,6.60
2018-09-19T23:02:52.722Z,5.00
2018-09-19T23:05:22.804Z,3.60
2018-09-19T23:07:53.718Z,4.40
2018-09-19T23:10:23.403Z,7.00
2018-09-19T23:12:54.606Z,5.00
2018-09-19T23:15:25.116Z,5.00
2018-09-19T23:17:54.868Z,7.60
2018-09-19T23:20:24.745Z,6.20
2018-09-19T23:22:54.339Z,4.00
2018-09-19T23:25:24.475Z,6.40
2018-09-19T23:27:54.818Z,5.00
2018-09-19T23:30:25.380Z,5.40
2018-09-19T23:32:57.079Z,7.80
2018-09-19T23:35:27.092Z,4.00
2018-09-19T23:37:57.520Z,5.00
2018-09-19T23:40:28.085Z,4.00
2018-09-19T23:42:57.779Z,5.20
2018-09-19T23:45:27.455Z,5.80
2018-09-19T23:47:58.235Z,6.80
2018-09-19T23:55:43.904Z,4.00
2018-09-19T23:58:13.844Z,4.80
